CheckWX is a tool to help pilots better visualize weather data.  It is not intended as a substitute for an official pre-flight weather briefing.

03:17:12 UTC

KEAT METAR
Pangborn Memorial Airport
Wenatchee, Washington, USA
Current

22 mins ago

KEAT 230255Z AUTO 00000KT 10SM CLR 15/11 A2984 RMK AO2 SLP104 60002 T01500111 53002 $
Observed
Sep-23 @ 02:55 UTC
Visibility
10 SM
Flight Rules
VFR
Cloud Levels
  • Clear skies
Temperature
15°C / 59°F
Dewpoint
11°C / 52°F
Humidity
77%
Altimeter
29.84" Hg
Pressure
1010.52 hPa
Previous

1 hour ago

KEAT 230155Z AUTO 00000KT 10SM CLR 16/12 A2983 RMK AO2 SLP099 T01560122 $
Observed
Sep-23 @ 01:55 UTC
Visibility
10 SM
Flight Rules
VFR
Cloud Levels
  • Clear skies
Temperature
16°C / 61°F
Dewpoint
12°C / 54°F
Humidity
77%
Altimeter
29.83" Hg
Pressure
1010.12 hPa
Previous

2 hours ago

KEAT 230055Z AUTO 20003KT 10SM SCT085 16/13 A2983 RMK AO2 RAE29 SLP099 P0002 T01610128 $
Observed
Sep-23 @ 00:55 UTC
Wind
  • 200° at 3 KTS
Visibility
10 SM
Flight Rules
VFR
Cloud Levels
  • Scattered at 8,500' AGL
Temperature
16°C / 61°F
Dewpoint
13°C / 55°F
Humidity
83%
Altimeter
29.83" Hg
Pressure
1010.12 hPa
Current Rain
0.02"